sensor_id;sensor_type;location;lat;lon;timestamp;pressure;altitude;pressure_sealevel;temperature;humidity
12475;BME280;6302;42.624;23.334;2024-01-11T00:01:39;94115.78;;;-4.06;100.00
12475;BME280;6302;42.624;23.334;2024-01-11T00:04:07;94112.97;;;-4.10;100.00
12475;BME280;6302;42.624;23.334;2024-01-11T00:06:40;94110.69;;;-4.11;100.00
12475;BME280;6302;42.624;23.334;2024-01-11T00:09:07;94106.56;;;-4.12;100.00
12475;BME280;6302;42.624;23.334;2024-01-11T00:11:33;94102.69;;;-4.15;100.00
12475;BME280;6302;42.624;23.334;2024-01-11T00:14:00;94097.53;;;-4.15;100.00
12475;BME280;6302;42.624;23.334;2024-01-11T00:16:27;94097.81;;;-4.16;100.00
12475;BME280;6302;42.624;23.334;2024-01-11T00:18:54;94094.75;;;-4.18;100.00
12475;BME280;6302;42.624;23.334;2024-01-11T00:21:22;94093.19;;;-4.19;100.00
12475;BME280;6302;42.624;23.334;2024-01-11T00:23:49;94100.47;;;-4.21;100.00
12475;BME280;6302;42.624;23.334;2024-01-11T00:26:15;94090.69;;;-4.24;100.00
12475;BME280;6302;42.624;23.334;2024-01-11T00:28:42;94093.97;;;-4.19;100.00
12475;BME280;6302;42.624;23.334;2024-01-11T00:31:09;94093.19;;;-4.19;100.00
12475;BME280;6302;42.624;23.334;2024-01-11T00:33:36;94093.19;;;-4.19;100.00
12475;BME280;6302;42.624;23.334;2024-01-11T00:36:04;94090.41;;;-4.23;100.00
12475;BME280;6302;42.624;23.334;2024-01-11T00:38:32;94095.09;;;-4.25;100.00
12475;BME280;6302;42.624;23.334;2024-01-11T00:40:59;94094.09;;;-4.29;100.00
12475;BME280;6302;42.624;23.334;2024-01-11T00:43:25;94088.16;;;-4.29;100.00
12475;BME280;6302;42.624;23.334;2024-01-11T00:45:52;94090.25;;;-4.31;100.00
12475;BME280;6302;42.624;23.334;2024-01-11T00:48:19;94084.31;;;-4.32;100.00
12475;BME280;6302;42.624;23.334;2024-01-11T00:50:45;94084.31;;;-4.32;100.00
12475;BME280;6302;42.624;23.334;2024-01-11T00:53:12;94082.31;;;-4.35;100.00
12475;BME280;6302;42.624;23.334;2024-01-11T00:55:41;94074.53;;;-4.35;100.00
12475;BME280;6302;42.624;23.334;2024-01-11T00:58:08;94069.22;;;-4.43;100.00
12475;BME280;6302;42.624;23.334;2024-01-11T01:00:35;94076.63;;;-4.37;100.00
12475;BME280;6302;42.624;23.334;2024-01-11T01:03:02;94068.44;;;-4.44;100.00
12475;BME280;6302;42.624;23.334;2024-01-11T01:05:29;94063.56;;;-4.45;100.00
12475;BME280;6302;42.624;23.334;2024-01-11T01:07:55;94062.53;;;-4.44;100.00
12475;BME280;6302;42.624;23.334;2024-01-11T01:10:22;94067.19;;;-4.46;100.00
12475;BME280;6302;42.624;23.334;2024-01-11T01:12:50;94062.00;;;-4.46;100.00
12475;BME280;6302;42.624;23.334;2024-01-11T01:15:18;94067.19;;;-4.46;100.00
12475;BME280;6302;42.624;23.334;2024-01-11T01:17:45;94063.84;;;-4.47;100.00
12475;BME280;6302;42.624;23.334;2024-01-11T01:20:12;94064.09;;;-4.48;100.00
12475;BME280;6302;42.624;23.334;2024-01-11T01:22:40;94065.19;;;-4.49;100.00
12475;BME280;6302;42.624;23.334;2024-01-11T01:25:07;94068.03;;;-4.51;100.00
12475;BME280;6302;42.624;23.334;2024-01-11T01:27:34;94068.03;;;-4.51;100.00
12475;BME280;6302;42.624;23.334;2024-01-11T01:30:02;94058.22;;;-4.54;100.00
12475;BME280;6302;42.624;23.334;2024-01-11T01:32:29;94070.84;;;-4.47;100.00
12475;BME280;6302;42.624;23.334;2024-01-11T01:34:56;94056.63;;;-4.50;100.00
12475;BME280;6302;42.624;23.334;2024-01-11T01:37:23;94031.53;;;-4.68;100.00
12475;BME280;6302;42.624;23.334;2024-01-11T01:39:50;94053.22;;;-4.45;100.00
12475;BME280;6302;42.624;23.334;2024-01-11T01:42:17;94058.38;;;-4.45;100.00
12475;BME280;6302;42.624;23.334;2024-01-11T01:44:44;94046.06;;;-4.53;100.00
12475;BME280;6302;42.624;23.334;2024-01-11T01:47:12;94042.09;;;-4.46;100.00
12475;BME280;6302;42.624;23.334;2024-01-11T01:49:39;94040.56;;;-4.47;100.00
12475;BME280;6302;42.624;23.334;2024-01-11T01:52:07;94032.53;;;-4.45;100.00
12475;BME280;6302;42.624;23.334;2024-01-11T01:54:34;94026.88;;;-4.47;100.00
12475;BME280;6302;42.624;23.334;2024-01-11T01:57:03;94032.03;;;-4.47;100.00
12475;BME280;6302;42.624;23.334;2024-01-11T01:59:31;94021.69;;;-4.47;100.00
12475;BME280;6302;42.624;23.334;2024-01-11T02:01:58;94022.72;;;-4.48;100.00
12475;BME280;6302;42.624;23.334;2024-01-11T02:04:27;94022.72;;;-4.48;100.00
12475;BME280;6302;42.624;23.334;2024-01-11T02:06:54;94024.53;;;-4.49;100.00
12475;BME280;6302;42.624;23.334;2024-01-11T02:09:22;94026.38;;;-4.49;100.00
12475;BME280;6302;42.624;23.334;2024-01-11T02:11:52;94010.84;;;-4.49;100.00
12475;BME280;6302;42.624;23.334;2024-01-11T02:14:19;94009.09;;;-4.54;100.00
12475;BME280;6302;42.624;23.334;2024-01-11T02:16:46;94017.06;;;-4.50;100.00
12475;BME280;6302;42.624;23.334;2024-01-11T02:19:13;94011.88;;;-4.50;100.00
12475;BME280;6302;42.624;23.334;2024-01-11T02:21:42;94017.53;;;-4.48;100.00
12475;BME280;6302;42.624;23.334;2024-01-11T02:24:10;94009.78;;;-4.48;100.00
12475;BME280;6302;42.624;23.334;2024-01-11T02:26:57;94003.44;;;-4.56;100.00
12475;BME280;6302;42.624;23.334;2024-01-11T02:29:25;94003.72;;;-4.57;100.00
12475;BME280;6302;42.624;23.334;2024-01-11T02:31:52;94014.63;;;-4.61;100.00
12475;BME280;6302;42.624;23.334;2024-01-11T02:34:19;94013.34;;;-4.63;100.00
12475;BME280;6302;42.624;23.334;2024-01-11T02:36:46;94011.56;;;-4.63;100.00
12475;BME280;6302;42.624;23.334;2024-01-11T02:39:16;94011.31;;;-4.66;100.00
12475;BME280;6302;42.624;23.334;2024-01-11T02:41:43;94007.69;;;-4.65;100.00
12475;BME280;6302;42.624;23.334;2024-01-11T02:44:10;94003.31;;;-4.65;100.00
12475;BME280;6302;42.624;23.334;2024-01-11T02:46:37;94010.00;;;-4.64;100.00
12475;BME280;6302;42.624;23.334;2024-01-11T02:49:04;94002.78;;;-4.67;100.00
12475;BME280;6302;42.624;23.334;2024-01-11T02:51:31;94002.91;;;-4.72;100.00
12475;BME280;6302;42.624;23.334;2024-01-11T02:53:58;93999.25;;;-4.71;100.00
12475;BME280;6302;42.624;23.334;2024-01-11T02:56:26;94004.16;;;-4.69;100.00
12475;BME280;6302;42.624;23.334;2024-01-11T02:58:53;93993.09;;;-4.75;100.00
12475;BME280;6302;42.624;23.334;2024-01-11T03:01:19;93996.66;;;-4.71;100.00
12475;BME280;6302;42.624;23.334;2024-01-11T03:03:46;94000.56;;;-4.73;100.00
12475;BME280;6302;42.624;23.334;2024-01-11T03:06:13;93994.13;;;-4.76;100.00
12475;BME280;6302;42.624;23.334;2024-01-11T03:08:40;93990.09;;;-4.82;100.00
12475;BME280;6302;42.624;23.334;2024-01-11T03:11:06;93995.75;;;-4.80;100.00
12475;BME280;6302;42.624;23.334;2024-01-11T03:13:35;93995.75;;;-4.80;100.00
12475;BME280;6302;42.624;23.334;2024-01-11T03:16:02;93988.25;;;-4.81;100.00
12475;BME280;6302;42.624;23.334;2024-01-11T03:18:28;93988.53;;;-4.83;100.00
12475;BME280;6302;42.624;23.334;2024-01-11T03:20:56;93988.25;;;-4.81;100.00
12475;BME280;6302;42.624;23.334;2024-01-11T03:23:23;93986.13;;;-4.74;100.00
12475;BME280;6302;42.624;23.334;2024-01-11T03:25:50;93991.00;;;-4.73;100.00
12475;BME280;6302;42.624;23.334;2024-01-11T03:28:17;93984.28;;;-4.74;100.00
12475;BME280;6302;42.624;23.334;2024-01-11T03:30:45;93986.13;;;-4.74;100.00
12475;BME280;6302;42.624;23.334;2024-01-11T03:33:12;93983.78;;;-4.76;100.00
12475;BME280;6302;42.624;23.334;2024-01-11T03:35:38;93979.19;;;-4.79;100.00
12475;BME280;6302;42.624;23.334;2024-01-11T03:38:05;93985.47;;;-4.85;100.00
12475;BME280;6302;42.624;23.334;2024-01-11T03:40:32;93981.09;;;-4.84;100.00
12475;BME280;6302;42.624;23.334;2024-01-11T03:42:59;93984.22;;;-4.87;100.00
12475;BME280;6302;42.624;23.334;2024-01-11T03:45:26;93984.47;;;-4.89;100.00
12475;BME280;6302;42.624;23.334;2024-01-11T03:47:54;93985.06;;;-4.92;100.00
12475;BME280;6302;42.624;23.334;2024-01-11T03:50:21;93984.00;;;-4.91;100.00
12475;BME280;6302;42.624;23.334;2024-01-11T03:52:48;93986.88;;;-4.92;100.00
12475;BME280;6302;42.624;23.334;2024-01-11T03:55:14;93971.91;;;-4.95;100.00
12475;BME280;6302;42.624;23.334;2024-01-11T03:57:41;93983.56;;;-4.98;100.00
12475;BME280;6302;42.624;23.334;2024-01-11T04:00:10;93971.50;;;-5.02;100.00
12475;BME280;6302;42.624;23.334;2024-01-11T04:02:37;93981.34;;;-5.04;100.00
12475;BME280;6302;42.624;23.334;2024-01-11T04:05:06;93972.34;;;-5.07;100.00
12475;BME280;6302;42.624;23.334;2024-01-11T04:07:32;93972.59;;;-5.08;100.00
12475;BME280;6302;42.624;23.334;2024-01-11T04:09:59;93972.81;;;-5.05;100.00
12475;BME280;6302;42.624;23.334;2024-01-11T04:12:26;93954.31;;;-5.12;100.00
12475;BME280;6302;42.624;23.334;2024-01-11T04:14:53;93960.94;;;-5.06;100.00
12475;BME280;6302;42.624;23.334;2024-01-11T04:17:19;93962.47;;;-5.05;100.00
12475;BME280;6302;42.624;23.334;2024-01-11T04:19:46;93953.25;;;-5.11;100.00
12475;BME280;6302;42.624;23.334;2024-01-11T04:22:15;93961.56;;;-5.14;100.00
12475;BME280;6302;42.624;23.334;2024-01-11T04:24:42;93950.25;;;-5.18;100.00
12475;BME280;6302;42.624;23.334;2024-01-11T04:27:09;93953.88;;;-5.19;100.00
12475;BME280;6302;42.624;23.334;2024-01-11T04:29:36;93953.41;;;-5.21;100.00
12475;BME280;6302;42.624;23.334;2024-01-11T04:32:03;93948.78;;;-5.24;100.00
12475;BME280;6302;42.624;23.334;2024-01-11T04:34:30;93950.88;;;-5.26;100.00
12475;BME280;6302;42.624;23.334;2024-01-11T04:36:57;93953.66;;;-5.22;100.00
12475;BME280;6302;42.624;23.334;2024-01-11T04:39:25;93954.44;;;-5.22;100.00
12475;BME280;6302;42.624;23.334;2024-01-11T04:41:51;93948.56;;;-5.28;100.00
12475;BME280;6302;42.624;23.334;2024-01-11T04:44:18;93952.41;;;-5.25;100.00
12475;BME280;6302;42.624;23.334;2024-01-11T04:46:45;93955.28;;;-5.27;100.00
12475;BME280;6302;42.624;23.334;2024-01-11T04:49:12;93954.72;;;-5.23;100.00
12475;BME280;6302;42.624;23.334;2024-01-11T04:51:38;93962.72;;;-5.25;100.00
12475;BME280;6302;42.624;23.334;2024-01-11T04:54:05;93954.97;;;-5.25;100.00
12475;BME280;6302;42.624;23.334;2024-01-11T04:56:33;93961.22;;;-5.26;100.00
12475;BME280;6302;42.624;23.334;2024-01-11T04:59:00;93956.53;;;-5.24;100.00
12475;BME280;6302;42.624;23.334;2024-01-11T05:01:27;93955.47;;;-5.23;100.00
12475;BME280;6302;42.624;23.334;2024-01-11T05:03:54;93965.53;;;-5.21;100.00
12475;BME280;6302;42.624;23.334;2024-01-11T05:06:22;93961.63;;;-5.19;100.00
12475;BME280;6302;42.624;23.334;2024-01-11T05:08:50;93962.41;;;-5.18;100.00
12475;BME280;6302;42.624;23.334;2024-01-11T05:11:18;93961.91;;;-5.20;100.00
12475;BME280;6302;42.624;23.334;2024-01-11T05:13:47;93962.19;;;-5.22;100.00
12475;BME280;6302;42.624;23.334;2024-01-11T05:16:19;93958.34;;;-5.24;100.00
12475;BME280;6302;42.624;23.334;2024-01-11T05:18:46;93955.53;;;-5.28;100.00
12475;BME280;6302;42.624;23.334;2024-01-11T05:21:13;93951.69;;;-5.31;100.00
12475;BME280;6302;42.624;23.334;2024-01-11T05:23:40;93944.72;;;-5.30;100.00
12475;BME280;6302;42.624;23.334;2024-01-11T05:26:07;93944.22;;;-5.32;100.00
12475;BME280;6302;42.624;23.334;2024-01-11T05:28:34;93940.59;;;-5.31;100.00
12475;BME280;6302;42.624;23.334;2024-01-11T05:31:02;93939.34;;;-5.34;100.00
12475;BME280;6302;42.624;23.334;2024-01-11T05:33:30;93942.41;;;-5.32;100.00
12475;BME280;6302;42.624;23.334;2024-01-11T05:35:57;93936.47;;;-5.32;100.00
12475;BME280;6302;42.624;23.334;2024-01-11T05:38:23;93939.53;;;-5.30;100.00
12475;BME280;6302;42.624;23.334;2024-01-11T05:40:50;93935.94;;;-5.29;100.00
12475;BME280;6302;42.624;23.334;2024-01-11T05:43:17;93933.06;;;-5.28;100.00
12475;BME280;6302;42.624;23.334;2024-01-11T05:45:44;93931.72;;;-5.25;100.00
12475;BME280;6302;42.624;23.334;2024-01-11T05:48:12;93934.06;;;-5.23;100.00
12475;BME280;6302;42.624;23.334;2024-01-11T05:50:39;93931.47;;;-5.23;100.00
12475;BME280;6302;42.624;23.334;2024-01-11T05:53:06;93934.88;;;-5.28;100.00
12475;BME280;6302;42.624;23.334;2024-01-11T05:55:33;93926.63;;;-5.30;100.00
12475;BME280;6302;42.624;23.334;2024-01-11T05:58:00;93924.81;;;-5.30;100.00
12475;BME280;6302;42.624;23.334;2024-01-11T06:00:27;93919.44;;;-5.33;100.00
12475;BME280;6302;42.624;23.334;2024-01-11T06:02:53;93911.97;;;-5.35;100.00
12475;BME280;6302;42.624;23.334;2024-01-11T06:05:22;93915.38;;;-5.39;100.00
12475;BME280;6302;42.624;23.334;2024-01-11T06:07:48;93918.47;;;-5.37;100.00
12475;BME280;6302;42.624;23.334;2024-01-11T06:10:15;93916.91;;;-5.38;100.00
12475;BME280;6302;42.624;23.334;2024-01-11T06:12:42;93921.53;;;-5.35;100.00
12475;BME280;6302;42.624;23.334;2024-01-11T06:15:09;93924.03;;;-5.30;100.00
12475;BME280;6302;42.624;23.334;2024-01-11T06:17:36;93924.03;;;-5.30;100.00
12475;BME280;6302;42.624;23.334;2024-01-11T06:20:03;93921.94;;;-5.28;100.00
12475;BME280;6302;42.624;23.334;2024-01-11T06:22:32;93921.88;;;-5.23;100.00
12475;BME280;6302;42.624;23.334;2024-01-11T06:24:58;93923.91;;;-5.20;100.00
12475;BME280;6302;42.624;23.334;2024-01-11T06:27:25;93924.13;;;-5.16;100.00
12475;BME280;6302;42.624;23.334;2024-01-11T06:29:52;93920.22;;;-5.14;100.00
12475;BME280;6302;42.624;23.334;2024-01-11T06:32:19;93914.00;;;-5.13;100.00
12475;BME280;6302;42.624;23.334;2024-01-11T06:34:45;93918.06;;;-5.07;100.00
12475;BME280;6302;42.624;23.334;2024-01-11T06:37:13;93911.75;;;-5.01;100.00
12475;BME280;6302;42.624;23.334;2024-01-11T06:39:41;93905.06;;;-5.02;100.00
12475;BME280;6302;42.624;23.334;2024-01-11T06:42:08;93905.00;;;-4.97;100.00
12475;BME280;6302;42.624;23.334;2024-01-11T06:44:35;93905.19;;;-4.93;100.00
12475;BME280;6302;42.624;23.334;2024-01-11T06:47:02;93905.13;;;-4.88;100.00
12475;BME280;6302;42.624;23.334;2024-01-11T06:49:31;93894.78;;;-4.88;100.00
12475;BME280;6302;42.624;23.334;2024-01-11T06:51:57;93881.19;;;-4.94;100.00
12475;BME280;6302;42.624;23.334;2024-01-11T06:54:24;93875.44;;;-4.91;100.00
12475;BME280;6302;42.624;23.334;2024-01-11T06:56:52;93896.97;;;-4.77;100.00
12475;BME280;6302;42.624;23.334;2024-01-11T06:59:19;93899.47;;;-4.72;100.00
12475;BME280;6302;42.624;23.334;2024-01-11T07:01:46;93897.56;;;-4.66;100.00
12475;BME280;6302;42.624;23.334;2024-01-11T07:04:15;93898.53;;;-4.62;100.00
12475;BME280;6302;42.624;23.334;2024-01-11T07:06:41;93899.91;;;-4.51;100.00
12475;BME280;6302;42.624;23.334;2024-01-11T07:09:08;93891.28;;;-4.46;100.00
12475;BME280;6302;42.624;23.334;2024-01-11T07:11:36;93896.84;;;-4.39;100.00
12475;BME280;6302;42.624;23.334;2024-01-11T07:14:04;93901.47;;;-4.36;100.00
12475;BME280;6302;42.624;23.334;2024-01-11T07:16:32;93903.00;;;-4.35;100.00
12475;BME280;6302;42.624;23.334;2024-01-11T07:18:59;93899.34;;;-4.34;100.00
12475;BME280;6302;42.624;23.334;2024-01-11T07:21:26;93896.59;;;-4.38;100.00
12475;BME280;6302;42.624;23.334;2024-01-11T07:23:57;93891.03;;;-4.31;100.00
12475;BME280;6302;42.624;23.334;2024-01-11T07:26:24;93896.69;;;-4.29;100.00
12475;BME280;6302;42.624;23.334;2024-01-11T07:28:51;93889.59;;;-4.37;100.00
12475;BME280;6302;42.624;23.334;2024-01-11T07:31:21;93898.03;;;-4.32;100.00
12475;BME280;6302;42.624;23.334;2024-01-11T07:33:48;93891.94;;;-4.22;100.00
12475;BME280;6302;42.624;23.334;2024-01-11T07:36:15;93883.50;;;-4.14;100.00
12475;BME280;6302;42.624;23.334;2024-01-11T07:38:42;93884.19;;;-4.09;100.00
12475;BME280;6302;42.624;23.334;2024-01-11T07:41:09;93885.44;;;-4.06;100.00
12475;BME280;6302;42.624;23.334;2024-01-11T07:43:36;93890.72;;;-3.98;100.00
12475;BME280;6302;42.624;23.334;2024-01-11T07:46:03;93887.84;;;-3.96;100.00
12475;BME280;6302;42.624;23.334;2024-01-11T07:48:32;93895.13;;;-3.98;100.00
12475;BME280;6302;42.624;23.334;2024-01-11T07:50:59;93895.22;;;-3.89;100.00
12475;BME280;6302;42.624;23.334;2024-01-11T07:53:26;93890.34;;;-3.91;100.00
12475;BME280;6302;42.624;23.334;2024-01-11T07:55:53;93894.25;;;-3.80;100.00
12475;BME280;6302;42.624;23.334;2024-01-11T07:58:20;93892.44;;;-3.66;100.00
12475;BME280;6302;42.624;23.334;2024-01-11T08:00:47;93883.88;;;-3.53;100.00
12475;BME280;6302;42.624;23.334;2024-01-11T08:03:14;93884.38;;;-3.51;100.00
12475;BME280;6302;42.624;23.334;2024-01-11T08:05:42;93879.19;;;-3.51;100.00
12475;BME280;6302;42.624;23.334;2024-01-11T08:08:09;93875.06;;;-3.52;100.00
12475;BME280;6302;42.624;23.334;2024-01-11T08:10:36;93875.94;;;-3.70;100.00
12475;BME280;6302;42.624;23.334;2024-01-11T08:13:03;93871.91;;;-3.62;100.00
12475;BME280;6302;42.624;23.334;2024-01-11T08:15:30;93878.91;;;-3.63;100.00
12475;BME280;6302;42.624;23.334;2024-01-11T08:17:57;93882.00;;;-3.61;100.00
12475;BME280;6302;42.624;23.334;2024-01-11T08:20:25;93868.34;;;-3.80;100.00
12475;BME280;6302;42.624;23.334;2024-01-11T08:22:54;93872.97;;;-3.63;100.00
12475;BME280;6302;42.624;23.334;2024-01-11T08:25:21;93867.69;;;-3.72;100.00
12475;BME280;6302;42.624;23.334;2024-01-11T08:27:49;93865.09;;;-3.72;100.00
12475;BME280;6302;42.624;23.334;2024-01-11T08:30:17;93840.75;;;-3.84;100.00
12475;BME280;6302;42.624;23.334;2024-01-11T08:32:44;93865.84;;;-3.58;100.00
12475;BME280;6302;42.624;23.334;2024-01-11T08:35:11;93866.66;;;-3.71;100.00
12475;BME280;6302;42.624;23.334;2024-01-11T08:37:38;93870.47;;;-3.68;100.00
12475;BME280;6302;42.624;23.334;2024-01-11T08:40:07;93860.28;;;-3.65;100.00
12475;BME280;6302;42.624;23.334;2024-01-11T08:42:34;93871.81;;;-3.57;100.00
12475;BME280;6302;42.624;23.334;2024-01-11T08:45:01;93875.63;;;-3.41;100.00
12475;BME280;6302;42.624;23.334;2024-01-11T08:47:32;93862.16;;;-3.30;100.00
12475;BME280;6302;42.624;23.334;2024-01-11T08:50:00;93866.94;;;-3.09;100.00
12475;BME280;6302;42.624;23.334;2024-01-11T08:52:26;93861.53;;;-2.99;100.00
12475;BME280;6302;42.624;23.334;2024-01-11T08:54:56;93836.41;;;-2.90;100.00
12475;BME280;6302;42.624;23.334;2024-01-11T08:57:24;93828.03;;;-2.87;100.00
12475;BME280;6302;42.624;23.334;2024-01-11T08:59:51;93852.03;;;-2.59;100.00
12475;BME280;6302;42.624;23.334;2024-01-11T09:02:17;93851.03;;;-2.50;100.00
12475;BME280;6302;42.624;23.334;2024-01-11T09:04:44;93850.91;;;-2.67;100.00
12475;BME280;6302;42.624;23.334;2024-01-11T09:07:12;93847.00;;;-2.78;100.00
12475;BME280;6302;42.624;23.334;2024-01-11T09:09:40;93843.13;;;-2.67;100.00
12475;BME280;6302;42.624;23.334;2024-01-11T09:12:07;93842.41;;;-2.59;100.00
12475;BME280;6302;42.624;23.334;2024-01-11T09:14:35;93831.19;;;-2.46;100.00
12475;BME280;6302;42.624;23.334;2024-01-11T09:17:02;93828.78;;;-2.42;100.00
12475;BME280;6302;42.624;23.334;2024-01-11T09:19:31;93831.66;;;-2.44;100.00
12475;BME280;6302;42.624;23.334;2024-01-11T09:21:59;93834.38;;;-2.49;100.00
12475;BME280;6302;42.624;23.334;2024-01-11T09:24:26;93828.47;;;-2.41;100.00
12475;BME280;6302;42.624;23.334;2024-01-11T09:26:53;93826.94;;;-2.42;100.00
12475;BME280;6302;42.624;23.334;2024-01-11T09:29:19;93825.88;;;-2.41;100.00
12475;BME280;6302;42.624;23.334;2024-01-11T09:31:48;93819.78;;;-2.36;100.00
12475;BME280;6302;42.624;23.334;2024-01-11T09:34:15;93819.91;;;-2.11;100.00
12475;BME280;6302;42.624;23.334;2024-01-11T09:36:42;93818.75;;;-1.87;100.00
12475;BME280;6302;42.624;23.334;2024-01-11T09:39:10;93811.94;;;-1.66;100.00
12475;BME280;6302;42.624;23.334;2024-01-11T09:41:41;93807.81;;;-1.76;100.00
12475;BME280;6302;42.624;23.334;2024-01-11T09:44:10;93805.75;;;-1.96;100.00
12475;BME280;6302;42.624;23.334;2024-01-11T09:46:36;93805.22;;;-1.76;100.00
12475;BME280;6302;42.624;23.334;2024-01-11T09:49:05;93789.75;;;-1.72;100.00
12475;BME280;6302;42.624;23.334;2024-01-11T09:51:35;93780.00;;;-1.67;100.00
12475;BME280;6302;42.624;23.334;2024-01-11T09:54:04;93775.91;;;-1.51;100.00
12475;BME280;6302;42.624;23.334;2024-01-11T09:56:33;93767.47;;;-1.48;100.00
12475;BME280;6302;42.624;23.334;2024-01-11T09:59:01;93779.72;;;-1.48;100.00
12475;BME280;6302;42.624;23.334;2024-01-11T10:01:31;93769.00;;;-1.38;100.00
12475;BME280;6302;42.624;23.334;2024-01-11T10:03:59;93763.50;;;-1.45;100.00
12475;BME280;6302;42.624;23.334;2024-01-11T10:06:29;93767.19;;;-1.29;100.00
12475;BME280;6302;42.624;23.334;2024-01-11T10:08:59;93762.91;;;-1.16;100.00
12475;BME280;6302;42.624;23.334;2024-01-11T10:11:25;93764.13;;;-1.14;100.00
12475;BME280;6302;42.624;23.334;2024-01-11T10:13:56;93747.88;;;-0.94;100.00
12475;BME280;6302;42.624;23.334;2024-01-11T10:16:23;93755.19;;;-0.79;100.00
12475;BME280;6302;42.624;23.334;2024-01-11T10:18:51;93749.56;;;-0.89;100.00
12475;BME280;6302;42.624;23.334;2024-01-11T10:21:20;93746.03;;;-0.85;100.00
12475;BME280;6302;42.624;23.334;2024-01-11T10:23:48;93732.25;;;-0.77;100.00
12475;BME280;6302;42.624;23.334;2024-01-11T10:26:16;93742.03;;;-0.74;100.00
12475;BME280;6302;42.624;23.334;2024-01-11T10:28:44;93737.75;;;-0.70;100.00
12475;BME280;6302;42.624;23.334;2024-01-11T10:31:11;93736.16;;;-0.53;100.00
12475;BME280;6302;42.624;23.334;2024-01-11T10:33:41;93731.72;;;-0.61;100.00
12475;BME280;6302;42.624;23.334;2024-01-11T10:36:09;93718.66;;;-0.44;100.00
12475;BME280;6302;42.624;23.334;2024-01-11T10:38:39;93714.28;;;-0.52;100.00
12475;BME280;6302;42.624;23.334;2024-01-11T10:41:07;93691.47;;;-0.55;100.00
12475;BME280;6302;42.624;23.334;2024-01-11T10:43:37;93709.00;;;-0.35;100.00
12475;BME280;6302;42.624;23.334;2024-01-11T10:46:05;93709.34;;;-0.45;100.00
12475;BME280;6302;42.624;23.334;2024-01-11T10:48:37;93700.94;;;-0.51;100.00
12475;BME280;6302;42.624;23.334;2024-01-11T10:51:08;93703.50;;;-0.42;100.00
12475;BME280;6302;42.624;23.334;2024-01-11T10:53:41;93694.00;;;-0.38;100.00
12475;BME280;6302;42.624;23.334;2024-01-11T10:56:12;93705.38;;;-0.22;100.00
12475;BME280;6302;42.624;23.334;2024-01-11T10:58:40;93690.41;;;-0.25;100.00
12475;BME280;6302;42.624;23.334;2024-01-11T11:01:08;93687.16;;;-0.22;100.00
12475;BME280;6302;42.624;23.334;2024-01-11T11:03:36;93680.25;;;-0.18;100.00
12475;BME280;6302;42.624;23.334;2024-01-11T11:06:05;93679.72;;;-0.03;100.00
12475;BME280;6302;42.624;23.334;2024-01-11T11:08:32;93671.72;;;0.02;100.00
12475;BME280;6302;42.624;23.334;2024-01-11T11:11:01;93670.88;;;0.10;99.28
12475;BME280;6302;42.624;23.334;2024-01-11T11:13:31;93669.31;;;0.18;98.38
12475;BME280;6302;42.624;23.334;2024-01-11T11:15:58;93661.44;;;0.26;99.32
12475;BME280;6302;42.624;23.334;2024-01-11T11:18:25;93657.03;;;0.39;99.43
12475;BME280;6302;42.624;23.334;2024-01-11T11:20:52;93647.88;;;0.53;97.89
12475;BME280;6302;42.624;23.334;2024-01-11T11:23:19;93637.44;;;0.53;97.51
12475;BME280;6302;42.624;23.334;2024-01-11T11:25:47;93636.28;;;0.63;97.06
12475;BME280;6302;42.624;23.334;2024-01-11T11:28:16;93624.84;;;0.55;94.45
12475;BME280;6302;42.624;23.334;2024-01-11T11:30:48;93625.97;;;0.67;95.71
12475;BME280;6302;42.624;23.334;2024-01-11T11:33:17;93608.94;;;0.69;94.43
12475;BME280;6302;42.624;23.334;2024-01-11T11:35:47;93605.75;;;0.63;93.75
12475;BME280;6302;42.624;23.334;2024-01-11T11:38:17;93613.25;;;0.65;93.77
12475;BME280;6302;42.624;23.334;2024-01-11T11:40:46;93605.91;;;0.46;95.85
12475;BME280;6302;42.624;23.334;2024-01-11T11:43:15;93607.97;;;0.74;94.07
12475;BME280;6302;42.624;23.334;2024-01-11T11:45:43;93593.38;;;0.73;92.43
12475;BME280;6302;42.624;23.334;2024-01-11T11:48:50;93591.00;;;0.80;93.08
12475;BME280;6302;42.624;23.334;2024-01-11T11:51:18;93592.09;;;0.79;93.33
12475;BME280;6302;42.624;23.334;2024-01-11T11:53:46;93582.53;;;0.83;91.93
12475;BME280;6302;42.624;23.334;2024-01-11T11:56:13;93591.78;;;0.80;93.13
12475;BME280;6302;42.624;23.334;2024-01-11T11:58:42;93593.59;;;0.68;94.71
12475;BME280;6302;42.624;23.334;2024-01-11T12:01:09;93594.50;;;0.84;95.25
12475;BME280;6302;42.624;23.334;2024-01-11T12:03:37;93582.94;;;0.73;95.51
12475;BME280;6302;42.624;23.334;2024-01-11T12:06:07;93579.06;;;0.79;94.26
12475;BME280;6302;42.624;23.334;2024-01-11T12:08:35;93576.78;;;0.89;93.83
12475;BME280;6302;42.624;23.334;2024-01-11T12:11:03;93577.03;;;0.96;94.07
12475;BME280;6302;42.624;23.334;2024-01-11T12:13:31;93563.44;;;0.91;93.52
12475;BME280;6302;42.624;23.334;2024-01-11T12:15:58;93563.44;;;0.91;93.23
12475;BME280;6302;42.624;23.334;2024-01-11T12:18:25;93566.25;;;0.98;93.98
12475;BME280;6302;42.624;23.334;2024-01-11T12:20:52;93557.56;;;0.94;94.89
12475;BME280;6302;42.624;23.334;2024-01-11T12:23:21;93553.22;;;0.98;94.71
12475;BME280;6302;42.624;23.334;2024-01-11T12:25:47;93561.59;;;1.03;96.00
12475;BME280;6302;42.624;23.334;2024-01-11T12:28:14;93554.69;;;0.75;95.95
12475;BME280;6302;42.624;23.334;2024-01-11T12:30:41;93551.03;;;0.88;95.46
12475;BME280;6302;42.624;23.334;2024-01-11T12:33:09;93543.19;;;0.88;97.07
12475;BME280;6302;42.624;23.334;2024-01-11T12:35:36;93539.19;;;1.02;96.79
12475;BME280;6302;42.624;23.334;2024-01-11T12:38:07;93537.78;;;1.05;95.27
12475;BME280;6302;42.624;23.334;2024-01-11T12:40:36;93520.56;;;0.92;96.07
12475;BME280;6302;42.624;23.334;2024-01-11T12:43:04;93527.53;;;1.12;97.38
12475;BME280;6302;42.624;23.334;2024-01-11T12:45:31;93527.88;;;1.22;96.93
12475;BME280;6302;42.624;23.334;2024-01-11T12:47:59;93528.22;;;1.33;97.42
12475;BME280;6302;42.624;23.334;2024-01-11T12:50:26;93521.22;;;1.37;97.98
12475;BME280;6302;42.624;23.334;2024-01-11T12:53:10;93514.16;;;1.50;99.18
12475;BME280;6302;42.624;23.334;2024-01-11T12:55:44;93504.69;;;1.45;99.48